createdAt,value
2019-05-25T00:04:48.043Z,100472.84
2019-05-25T00:09:52.598Z,100470.84
2019-05-25T00:14:57.255Z,100452.72
2019-05-25T00:20:01.836Z,100463.45
2019-05-25T00:25:06.658Z,100467.59
2019-05-25T00:30:11.231Z,100465.08
2019-05-25T00:35:16.070Z,100460.97
2019-05-25T00:40:21.482Z,100465.09
2019-05-25T00:45:26.246Z,100475.86
2019-05-25T00:50:30.817Z,100473.05
2019-05-25T00:55:35.319Z,100467.57
2019-05-25T01:00:40.063Z,100470.56
2019-05-25T01:05:44.513Z,100472.80
2019-05-25T01:10:49.085Z,100473.61
2019-05-25T01:15:53.759Z,100468.90
2019-05-25T01:20:58.567Z,100475.27
2019-05-25T01:26:03.210Z,100475.27
2019-05-25T01:31:07.967Z,100463.41
2019-05-25T01:36:12.542Z,100471.69
2019-05-25T01:41:17.343Z,100475.24
2019-05-25T01:46:21.924Z,100459.28
2019-05-25T01:51:26.458Z,100461.14
2019-05-25T01:56:31.035Z,100460.94
2019-05-25T02:01:35.675Z,100446.62
2019-05-25T02:06:40.394Z,100450.17
2019-05-25T02:11:45.103Z,100454.31
2019-05-25T02:16:49.707Z,100457.37
2019-05-25T02:21:54.666Z,100447.19
2019-05-25T02:26:59.477Z,100439.20
2019-05-25T02:32:04.115Z,100429.27
2019-05-25T02:37:08.851Z,100437.80
2019-05-25T02:42:13.846Z,100428.70
2019-05-25T02:47:18.455Z,100431.74
2019-05-25T02:52:23.178Z,100428.44
2019-05-25T02:57:27.803Z,100422.95
2019-05-25T03:02:32.600Z,100422.98
2019-05-25T03:07:37.599Z,100424.09
2019-05-25T03:12:42.256Z,100426.28
2019-05-25T03:17:46.887Z,100420.74
2019-05-25T03:22:51.430Z,100427.95
2019-05-25T03:27:56.075Z,100420.25
2019-05-25T03:33:00.773Z,100419.97
2019-05-25T03:38:05.418Z,100418.56
2019-05-25T03:43:10.064Z,100414.17
2019-05-25T03:48:14.724Z,100418.58
2019-05-25T03:53:19.430Z,100419.68
2019-05-25T03:58:23.995Z,100436.98
2019-05-25T04:03:28.556Z,100428.18
2019-05-25T04:08:33.086Z,100428.49
2019-05-25T04:13:37.605Z,100428.20
2019-05-25T04:18:42.261Z,100429.30
2019-05-25T04:23:46.793Z,100439.47
2019-05-25T04:28:51.449Z,100436.47
2019-05-25T04:33:56.063Z,100432.28
2019-05-25T04:39:00.780Z,100441.96
2019-05-25T04:44:05.369Z,100438.94
2019-05-25T04:49:09.866Z,100442.74
2019-05-25T04:54:14.462Z,100453.25
2019-05-25T04:59:19.195Z,100455.14
2019-05-25T05:04:23.859Z,100454.28
2019-05-25T05:09:29.770Z,100449.28
2019-05-25T05:14:34.245Z,100443.45
2019-05-25T05:19:38.781Z,100452.81
2019-05-25T05:24:43.467Z,100461.06
2019-05-25T05:29:48.206Z,100458.33
2019-05-25T05:34:53.378Z,100461.06
2019-05-25T05:39:58.590Z,100471.00
2019-05-25T05:45:04.752Z,100466.86
2019-05-25T05:50:10.758Z,100474.05
2019-05-25T05:55:18.903Z,100474.84
2019-05-25T06:00:23.611Z,100469.59
2019-05-25T06:05:28.220Z,100472.89
2019-05-25T06:10:32.887Z,100477.55
2019-05-25T06:15:37.881Z,100468.40
2019-05-25T06:20:43.221Z,100465.64
2019-05-25T06:25:47.738Z,100471.88
2019-05-25T06:30:52.436Z,100466.58
2019-05-25T06:35:56.911Z,100471.63
2019-05-25T06:41:01.615Z,100474.05
2019-05-25T06:46:06.548Z,100474.80
2019-05-25T06:51:10.990Z,100478.36
2019-05-25T06:56:15.575Z,100485.59
2019-05-25T07:01:20.208Z,100487.52
2019-05-25T07:06:25.236Z,100487.81
2019-05-25T07:11:29.931Z,100489.15
2019-05-25T07:16:34.573Z,100484.72
2019-05-25T07:21:39.531Z,100483.25
2019-05-25T07:26:44.239Z,100487.79
2019-05-25T07:31:48.844Z,100488.59
2019-05-25T07:36:53.547Z,100494.80
2019-05-25T07:41:58.248Z,100502.59
2019-05-25T07:47:02.867Z,100510.38
2019-05-25T07:52:07.495Z,100507.37
2019-05-25T07:57:12.179Z,100506.00
2019-05-25T08:02:16.988Z,100520.69
2019-05-25T08:07:21.767Z,100524.78
2019-05-25T08:12:27.983Z,100527.59
2019-05-25T08:17:32.570Z,100525.02
2019-05-25T08:22:37.224Z,100533.85
2019-05-25T08:27:41.788Z,100537.06
2019-05-25T08:32:46.324Z,100530.51
2019-05-25T08:37:50.995Z,100529.41
2019-05-25T08:42:55.815Z,100530.79
2019-05-25T08:48:00.604Z,100529.22
2019-05-25T08:53:05.572Z,100523.42
2019-05-25T08:58:10.523Z,100521.89
2019-05-25T09:03:15.447Z,100519.56
2019-05-25T09:08:20.132Z,100520.68
2019-05-25T09:13:25.294Z,100518.00
2019-05-25T09:18:30.338Z,100515.13
2019-05-25T09:23:35.065Z,100514.23
2019-05-25T09:28:40.051Z,100518.28
2019-05-25T09:33:44.818Z,100518.25
2019-05-25T09:38:49.509Z,100518.66
2019-05-25T09:43:54.466Z,100516.91
2019-05-25T09:48:59.191Z,100514.03
2019-05-25T09:54:03.919Z,100512.18
2019-05-25T09:59:19.845Z,100515.66
2019-05-25T10:04:15.186Z,100508.98
2019-05-25T10:09:19.892Z,100510.24
2019-05-25T10:14:24.833Z,100511.11
2019-05-25T10:19:29.710Z,100510.23
2019-05-25T10:24:34.599Z,100503.81
2019-05-25T10:29:39.449Z,100503.72
2019-05-25T10:34:44.103Z,100507.08
2019-05-25T10:39:48.786Z,100505.16
2019-05-25T10:44:54.724Z,100504.88
2019-05-25T10:49:59.375Z,100503.36
2019-05-25T10:55:04.139Z,100511.26
2019-05-25T11:00:10.076Z,100504.39
2019-05-25T11:05:15.599Z,100500.55
2019-05-25T11:10:20.786Z,100503.41
2019-05-25T11:15:26.012Z,100505.28
2019-05-25T11:20:30.898Z,100499.39
2019-05-25T11:25:35.821Z,100495.36
2019-05-25T11:30:40.413Z,100504.11
2019-05-25T11:35:46.007Z,100493.78
2019-05-25T11:40:50.859Z,100489.70
2019-05-25T11:45:55.510Z,100501.75
2019-05-25T11:51:00.251Z,100513.80
2019-05-25T11:56:04.887Z,100511.59
2019-05-25T12:01:09.518Z,100520.75
2019-05-25T12:06:14.110Z,100519.64
2019-05-25T12:11:19.031Z,100521.83
2019-05-25T12:16:23.630Z,100519.28
2019-05-25T12:21:28.211Z,100515.24
2019-05-25T12:26:32.851Z,100513.55
2019-05-25T12:31:37.646Z,100493.73
2019-05-25T12:36:42.437Z,100493.73
2019-05-25T12:41:47.163Z,100502.50
2019-05-25T12:46:51.898Z,100504.50
2019-05-25T12:51:56.472Z,100493.64
2019-05-25T12:57:02.784Z,100487.26
2019-05-25T13:02:08.430Z,100490.90
2019-05-25T13:07:13.099Z,100489.89
2019-05-25T13:12:18.604Z,100494.64
2019-05-25T13:17:23.491Z,100488.55
2019-05-25T13:22:28.110Z,100488.48
2019-05-25T13:27:32.839Z,100484.77
2019-05-25T13:32:37.578Z,100481.92
2019-05-25T13:37:42.300Z,100488.13
2019-05-25T13:42:47.066Z,100481.34
2019-05-25T13:47:51.852Z,100480.94
2019-05-25T13:52:56.599Z,100479.89
2019-05-25T13:58:01.328Z,100481.20
2019-05-25T14:03:06.365Z,100478.34
2019-05-25T14:08:11.073Z,100486.52
2019-05-25T14:13:16.103Z,100483.49
2019-05-25T14:18:20.823Z,100486.53
2019-05-25T14:23:25.719Z,100477.48
2019-05-25T14:28:30.667Z,100485.37
2019-05-25T14:33:35.251Z,100496.77
2019-05-25T14:38:39.970Z,100490.92
2019-05-25T14:43:44.678Z,100494.70
2019-05-25T14:48:49.867Z,100490.69
2019-05-25T14:53:54.713Z,100486.25
2019-05-25T14:58:59.583Z,100491.56
2019-05-25T15:04:04.318Z,100496.80
2019-05-25T15:09:09.498Z,100488.39
2019-05-25T15:14:14.287Z,100487.17
2019-05-25T15:19:18.996Z,100489.48
2019-05-25T15:24:23.862Z,100490.40
2019-05-25T15:29:28.631Z,100483.14
2019-05-25T15:34:33.411Z,100481.69
2019-05-25T15:39:38.544Z,100477.89
2019-05-25T15:44:43.320Z,100478.34
2019-05-25T15:49:47.970Z,100465.85
2019-05-25T15:54:52.758Z,100472.06
2019-05-25T15:59:57.396Z,100463.31
2019-05-25T16:05:02.064Z,100457.34
2019-05-25T16:10:07.843Z,100462.02
2019-05-25T16:15:15.543Z,100461.63
2019-05-25T16:20:23.159Z,100468.55
2019-05-25T16:25:27.867Z,100469.70
2019-05-25T16:30:32.583Z,100474.41
2019-05-25T16:35:37.479Z,100469.86
2019-05-25T16:40:42.541Z,100461.23
2019-05-25T16:45:47.149Z,100463.06
2019-05-25T16:50:52.046Z,100458.91
2019-05-25T16:55:56.992Z,100455.11
2019-05-25T17:01:01.975Z,100451.67
2019-05-25T17:06:07.005Z,100446.45
2019-05-25T17:11:11.792Z,100452.33
2019-05-25T17:16:16.498Z,100461.10
2019-05-25T17:21:21.980Z,100460.70
2019-05-25T17:26:26.770Z,100459.77
2019-05-25T17:31:31.411Z,100459.56
2019-05-25T17:36:36.483Z,100455.55
2019-05-25T17:41:41.130Z,100453.22
2019-05-25T17:46:46.060Z,100452.84
2019-05-25T17:51:50.798Z,100451.75
2019-05-25T17:56:55.706Z,100449.42
2019-05-25T18:02:00.399Z,100444.66
2019-05-25T18:07:05.210Z,100442.80
2019-05-25T18:12:10.023Z,100442.33
2019-05-25T18:17:14.893Z,100442.67
2019-05-25T18:22:19.851Z,100444.67
2019-05-25T18:27:24.462Z,100446.52
2019-05-25T18:32:29.293Z,100451.92
2019-05-25T18:37:33.953Z,100457.31
2019-05-25T18:42:38.812Z,100440.84
2019-05-25T18:47:43.620Z,100455.40
2019-05-25T18:52:48.391Z,100452.09
2019-05-25T18:57:53.203Z,100449.09
2019-05-25T19:02:58.711Z,100446.09
2019-05-25T19:08:03.560Z,100450.23
2019-05-25T19:13:08.281Z,100441.80
2019-05-25T19:18:13.091Z,100440.41
2019-05-25T19:23:18.198Z,100439.68
2019-05-25T19:28:23.076Z,100451.51
2019-05-25T19:33:28.180Z,100447.36
2019-05-25T19:38:32.879Z,100454.31
2019-05-25T19:43:37.634Z,100441.59
2019-05-25T19:48:42.401Z,100442.68
2019-05-25T19:53:47.118Z,100436.12
2019-05-25T19:58:51.911Z,100437.25
2019-05-25T20:03:57.590Z,100445.20
2019-05-25T20:09:02.834Z,100441.23
2019-05-25T20:14:07.973Z,100439.56
2019-05-25T20:19:12.930Z,100454.73
2019-05-25T20:24:18.072Z,100459.42
2019-05-25T20:29:22.820Z,100463.02
2019-05-25T20:34:27.536Z,100467.48
2019-05-25T20:39:32.640Z,100460.63
2019-05-25T20:44:37.459Z,100467.81
2019-05-25T20:49:42.187Z,100462.08
2019-05-25T20:54:47.099Z,100462.05
2019-05-25T20:59:51.931Z,100460.66
2019-05-25T21:04:56.620Z,100459.54
2019-05-25T21:10:01.311Z,100471.73
2019-05-25T21:15:06.493Z,100460.63
2019-05-25T21:20:12.650Z,100463.42
2019-05-25T21:25:18.638Z,100464.26
2019-05-25T21:30:23.862Z,100460.92
2019-05-25T21:35:28.670Z,100462.80
2019-05-25T21:40:33.652Z,100468.06
2019-05-25T21:45:38.546Z,100464.44
2019-05-25T21:50:43.499Z,100475.98
2019-05-25T21:55:48.230Z,100474.93
2019-05-25T22:00:52.970Z,100466.36
2019-05-25T22:05:57.799Z,100464.69
2019-05-25T22:11:02.838Z,100456.48
2019-05-25T22:16:07.568Z,100454.06
2019-05-25T22:21:13.239Z,100452.68
2019-05-25T22:26:18.310Z,100445.53
2019-05-25T22:31:23.066Z,100445.83
2019-05-25T22:36:39.792Z,100436.46
2019-05-25T22:41:34.400Z,100431.49
2019-05-25T22:46:39.182Z,100436.53
2019-05-25T22:51:43.990Z,100436.28
2019-05-25T22:56:48.708Z,100435.95
2019-05-25T23:01:53.621Z,100426.59
2019-05-25T23:06:58.706Z,100420.23
2019-05-25T23:12:03.554Z,100413.53
2019-05-25T23:17:08.339Z,100402.83
2019-05-25T23:22:14.212Z,100399.81
2019-05-25T23:27:19.159Z,100403.41
2019-05-25T23:32:23.890Z,100386.57
2019-05-25T23:37:28.553Z,100387.45
2019-05-25T23:42:33.510Z,100381.52
2019-05-25T23:47:38.559Z,100379.31
2019-05-25T23:52:43.312Z,100370.50
2019-05-25T23:57:47.991Z,100365.46
